Time;durP1;ratioP1;P1;durP2;ratioP2;P2;SDS_P1;SDS_P2;PMS_P1;PMS_P2;Temp;Humidity;BMP_temperature;BMP_pressure;BME280_temperature;BME280_humidity;BME280_pressure;Samples;Min_cycle;Max_cycle;Signal;HPM_P1;HPM_P2
2022/03/20 00:01:31;;;;;;;175.77;112.53;;;;;;;23.32;100.00;97712.31;5014217;28;20048;-69
2022/03/20 00:04:26;;;;;;;171.07;108.80;;;;;;;23.35;100.00;97715.50;5021088;28;20080;-69
2022/03/20 00:07:11;;;;;;;165.18;105.55;;;;;;;23.35;100.00;97730.44;5025270;28;20077;-69
2022/03/20 00:10:00;;;;;;;171.75;108.38;;;;;;;23.35;100.00;97735.69;5019190;28;20151;-69
2022/03/20 00:12:44;;;;;;;164.43;103.55;;;;;;;23.32;100.00;97749.94;5029858;28;20128;-68
2022/03/20 00:15:33;;;;;;;161.38;104.55;;;;;;;23.32;100.00;97749.13;5014212;28;20076;-69
2022/03/20 00:18:23;;;;;;;172.52;106.00;;;;;;;23.29;100.00;97747.63;5011193;28;20124;-69
2022/03/20 00:21:00;;;;;;;172.35;105.22;;;;;;;23.26;100.00;97740.88;5027455;28;20057;-69
2022/03/20 00:23:52;;;;;;;166.35;106.85;;;;;;;23.23;100.00;97740.31;5026308;28;20046;-69
2022/03/20 00:26:34;;;;;;;184.90;109.07;;;;;;;23.19;100.00;97745.06;5030814;28;20152;-69
2022/03/20 00:29:22;;;;;;;180.65;107.68;;;;;;;23.18;100.00;97745.19;5026907;28;20045;-69
2022/03/20 00:32:09;;;;;;;173.45;110.32;;;;;;;23.17;100.00;97749.63;5025213;28;20053;-69
2022/03/20 00:34:59;;;;;;;176.70;112.47;;;;;;;23.12;100.00;97748.44;5005895;28;20057;-69
2022/03/20 00:37:42;;;;;;;189.90;117.53;;;;;;;23.12;100.00;97746.63;5008522;28;20053;-69
2022/03/20 00:40:32;;;;;;;202.82;117.28;;;;;;;23.09;100.00;97753.97;5021697;28;20512;-69
2022/03/20 00:43:14;;;;;;;197.95;121.38;;;;;;;23.07;100.00;97761.16;5026005;28;20049;-69
2022/03/20 00:46:04;;;;;;;208.70;122.15;;;;;;;23.05;100.00;97766.59;5007355;28;20046;-69
2022/03/20 00:48:45;;;;;;;205.07;120.75;;;;;;;22.96;100.00;97762.22;5011858;28;20049;-69
2022/03/20 00:51:35;;;;;;;188.52;112.03;;;;;;;22.99;100.00;97761.88;5007163;28;20049;-69
2022/03/20 00:54:30;;;;;;;184.80;110.63;;;;;;;23.04;100.00;97771.97;5006619;28;20069;-69
2022/03/20 00:57:05;;;;;;;173.43;109.97;;;;;;;23.04;100.00;97782.50;5006030;28;20081;-69
2022/03/20 01:00:00;;;;;;;201.23;120.13;;;;;;;22.94;100.00;97782.53;5025620;28;20114;-69
2022/03/20 01:02:43;;;;;;;193.63;115.32;;;;;;;22.93;100.00;97778.25;5034183;28;20192;-69
2022/03/20 01:05:32;;;;;;;175.45;109.97;;;;;;;22.96;100.00;97771.88;5023266;28;20072;-68
2022/03/20 01:08:21;;;;;;;182.68;110.10;;;;;;;22.95;100.00;97780.72;5023302;28;20045;-68
2022/03/20 01:11:04;;;;;;;181.30;109.45;;;;;;;22.99;100.00;97788.16;5005200;28;20058;-68
2022/03/20 01:13:55;;;;;;;185.73;108.43;;;;;;;23.01;100.00;97790.66;5009713;28;20057;-68
2022/03/20 01:16:32;;;;;;;178.73;108.63;;;;;;;23.03;100.00;97793.97;4998838;28;20057;-68
2022/03/20 01:19:23;;;;;;;178.82;110.40;;;;;;;23.02;100.00;97798.41;5024459;28;20134;-68
2022/03/20 01:22:12;;;;;;;177.90;109.45;;;;;;;23.00;100.00;97789.00;5023848;28;20057;-68
2022/03/20 01:24:54;;;;;;;178.68;109.78;;;;;;;23.01;100.00;97790.66;5010355;28;20045;-68
2022/03/20 01:27:45;;;;;;;178.93;105.55;;;;;;;23.03;100.00;97800.06;5025888;28;20285;-68
2022/03/20 01:30:27;;;;;;;181.68;106.30;;;;;;;23.05;100.00;97802.53;5011334;28;20060;-68
2022/03/20 01:33:17;;;;;;;177.93;104.72;;;;;;;23.03;100.00;97805.31;5044233;28;20130;-67
2022/03/20 01:36:00;;;;;;;171.98;102.32;;;;;;;23.05;100.00;97813.06;5037847;28;20135;-67
2022/03/20 01:38:49;;;;;;;162.88;100.38;;;;;;;23.05;100.00;97828.81;5023942;28;20053;-67
2022/03/20 01:41:38;;;;;;;168.18;101.45;;;;;;;23.10;100.00;97837.91;5024339;28;20057;-68
2022/03/20 01:44:26;;;;;;;175.02;104.90;;;;;;;23.09;100.00;97833.63;5023851;28;20460;-68
2022/03/20 01:47:08;;;;;;;165.02;98.22;;;;;;;23.08;100.00;97828.50;5023857;28;20126;-67
2022/03/20 01:49:57;;;;;;;154.85;97.55;;;;;;;23.16;100.00;97855.72;5024656;28;20073;-67
2022/03/20 01:52:47;;;;;;;155.25;97.35;;;;;;;23.21;100.00;97861.38;5023658;28;20477;-68
2022/03/20 01:55:36;;;;;;;154.88;94.82;;;;;;;23.25;100.00;97857.47;5023220;28;20092;-68
2022/03/20 01:58:18;;;;;;;165.77;100.05;;;;;;;23.33;100.00;97855.91;5024831;28;20079;-68
2022/03/20 02:01:08;;;;;;;155.60;97.10;;;;;;;23.37;100.00;97859.94;5025463;28;20042;-68
2022/03/20 02:03:53;;;;;;;161.50;97.80;;;;;;;23.45;100.00;97867.91;5031872;28;20114;-68
2022/03/20 02:06:41;;;;;;;161.73;93.97;;;;;;;23.55;100.00;97873.97;5031913;28;20049;-68
2022/03/20 02:09:31;;;;;;;146.65;91.22;;;;;;;23.68;100.00;97868.38;5032537;28;20073;-68
2022/03/20 02:12:14;;;;;;;144.02;90.55;;;;;;;23.82;100.00;97881.00;5023106;28;20052;-68
2022/03/20 02:15:12;;;;;;;136.95;88.57;;;;;;;23.95;100.00;97890.19;5021262;28;20061;-68
2022/03/20 02:17:47;;;;;;;141.52;88.70;;;;;;;24.05;100.00;97898.00;5023296;28;20198;-68
2022/03/20 02:20:37;;;;;;;140.20;90.07;;;;;;;24.18;100.00;97895.84;5025990;28;20060;-67
2022/03/20 02:23:19;;;;;;;141.00;89.72;;;;;;;24.25;100.00;97893.47;5028608;28;20045;-68
2022/03/20 02:26:08;;;;;;;141.82;89.63;;;;;;;24.35;100.00;97910.81;5026937;28;20041;-67
2022/03/20 02:28:50;;;;;;;142.73;87.60;;;;;;;24.42;100.00;97917.13;5022185;28;20058;-67
2022/03/20 02:31:38;;;;;;;138.63;86.68;;;;;;;24.48;100.00;97917.53;5021655;28;20104;-67
2022/03/20 02:34:28;;;;;;;130.68;84.28;;;;;;;24.50;100.00;97912.94;5023790;28;20042;-68
2022/03/20 02:37:11;;;;;;;139.82;88.30;;;;;;;24.54;100.00;97917.75;5020247;28;20895;-67
2022/03/20 02:40:05;;;;;;;140.88;88.25;;;;;;;24.64;100.00;97925.56;5020502;28;20056;-67
2022/03/20 02:42:54;;;;;;;140.07;89.57;;;;;;;24.65;100.00;97911.41;5032644;28;20041;-67
2022/03/20 02:45:36;;;;;;;148.68;91.85;;;;;;;24.71;100.00;97916.88;5033415;28;20399;-67
2022/03/20 02:48:25;;;;;;;159.38;93.32;;;;;;;24.78;100.00;97938.19;5005698;28;20045;-67
2022/03/20 02:51:07;;;;;;;142.43;92.53;;;;;;;24.85;100.00;97931.31;5022086;28;20045;-67
2022/03/20 02:53:57;;;;;;;150.02;93.28;;;;;;;24.94;100.00;97921.69;5013690;28;20057;-67
2022/03/20 02:56:40;;;;;;;137.38;88.80;;;;;;;24.92;100.00;97923.63;5026541;28;20049;-67
2022/03/20 02:59:29;;;;;;;145.15;87.43;;;;;;;25.01;100.00;97928.81;5021490;28;20767;-67
2022/03/20 03:02:11;;;;;;;133.95;83.45;;;;;;;25.11;100.00;97926.09;5031432;28;20102;-67
2022/03/20 03:05:07;;;;;;;133.65;83.32;;;;;;;25.11;100.00;97921.63;5028795;28;20045;-67
2022/03/20 03:11:11;;;;;;;108.45;69.72;;;;;;;25.25;100.00;97953.69;5028735;28;20942;-67
2022/03/20 03:13:47;;;;;;;111.22;69.57;;;;;;;25.35;100.00;97941.22;5030909;28;20104;-67
2022/03/20 03:16:41;;;;;;;111.82;71.57;;;;;;;25.45;100.00;97942.75;5029657;28;20491;-66
2022/03/20 03:19:16;;;;;;;105.60;68.53;;;;;;;25.55;100.00;97947.88;5035043;28;20047;-67
2022/03/20 03:22:05;;;;;;;109.50;67.55;;;;;;;25.60;100.00;97944.81;5020394;28;20145;-67
2022/03/20 03:24:48;;;;;;;103.30;66.90;;;;;;;25.62;100.00;97946.31;5033610;28;20056;-67
2022/03/20 03:27:37;;;;;;;98.10;63.15;;;;;;;25.69;100.00;97954.44;5034724;28;20060;-67
2022/03/20 03:30:19;;;;;;;96.18;63.55;;;;;;;25.69;100.00;97955.25;5032533;28;20098;-68
2022/03/20 03:33:08;;;;;;;94.90;62.22;;;;;;;25.78;100.00;97961.41;5014760;28;20069;-67
2022/03/20 03:35:54;;;;;;;102.72;63.78;;;;;;;25.76;100.00;97958.91;5025129;28;20071;-68
2022/03/20 03:38:43;;;;;;;106.33;64.37;;;;;;;25.81;100.00;97961.06;5032595;28;20049;-67
2022/03/20 03:41:25;;;;;;;98.13;61.80;;;;;;;25.96;100.00;97962.09;5032963;28;20041;-67
2022/03/20 03:44:19;;;;;;;97.82;65.88;;;;;;;26.05;100.00;97961.16;5031632;28;20064;-67
2022/03/20 03:46:57;;;;;;;107.90;67.40;;;;;;;26.14;100.00;97964.63;5014886;28;20069;-68
2022/03/20 03:49:45;;;;;;;96.28;64.30;;;;;;;26.22;100.00;97968.13;5022959;28;20141;-68
2022/03/20 03:52:28;;;;;;;107.85;66.57;;;;;;;26.27;100.00;97978.22;5025031;28;20049;-68
2022/03/20 03:55:32;;;;;;;101.82;65.15;;;;;;;26.31;100.00;97973.44;5011957;28;20053;-67
2022/03/20 03:58:07;;;;;;;99.70;65.15;;;;;;;26.35;100.00;97972.13;5019153;28;20045;-67
2022/03/20 04:01:02;;;;;;;100.88;66.45;;;;;;;26.46;100.00;97987.69;5036111;28;20049;-67
2022/03/20 04:03:37;;;;;;;105.85;69.13;;;;;;;26.62;100.00;97979.78;5032693;28;20150;-67
2022/03/20 04:06:32;;;;;;;108.47;68.60;;;;;;;26.72;100.00;97982.25;5032461;28;20470;-68
2022/03/20 04:09:21;;;;;;;104.30;67.53;;;;;;;26.92;100.00;97988.88;5033580;28;20068;-67
2022/03/20 04:12:12;;;;;;;111.47;69.32;;;;;;;27.04;100.00;97991.03;5035822;28;20110;-67
2022/03/20 04:14:57;;;;;;;106.30;69.85;;;;;;;27.10;100.00;97983.44;5035039;28;20106;-67
2022/03/20 04:17:47;;;;;;;101.20;68.82;;;;;;;27.24;100.00;97994.16;5036451;28;20388;-67
2022/03/20 04:20:34;;;;;;;104.10;68.25;;;;;;;27.30;100.00;97992.63;5027909;28;20061;-66
2022/03/20 04:26:24;;;;;;;100.97;63.90;;;;;;;27.63;100.00;97986.31;5024783;28;20049;-67
2022/03/20 04:29:13;;;;;;;103.07;65.03;;;;;;;27.78;100.00;97991.72;5027498;28;20053;-68
2022/03/20 04:31:58;;;;;;;107.82;64.93;;;;;;;28.02;100.00;97996.06;5023180;28;20361;-68
2022/03/20 04:34:55;;;;;;;97.97;63.97;;;;;;;28.13;100.00;97998.34;5020801;28;20044;-69
2022/03/20 04:37:44;;;;;;;90.03;59.17;;;;;;;27.89;100.00;98001.09;5016428;28;20111;-69
2022/03/20 04:40:34;;;;;;;87.75;57.75;;;;;;;27.70;100.00;98007.63;5027343;28;20053;-70
2022/03/20 04:43:17;;;;;;;90.93;60.10;;;;;;;27.60;100.00;98001.72;5025079;28;20041;-68
2022/03/20 04:46:06;;;;;;;83.95;57.95;;;;;;;27.58;100.00;98006.34;5024999;28;20692;-68
2022/03/20 05:01:03;;;;;;;83.22;55.90;;;;;;;27.56;100.00;98009.16;5022279;28;20053;-68
2022/03/20 05:03:52;;;;;;;78.75;53.83;;;;;;;27.67;100.00;98007.97;5022836;28;20066;-68
2022/03/20 05:06:34;;;;;;;77.10;51.65;;;;;;;27.86;100.00;98007.56;5024582;28;20111;-68
2022/03/20 05:15:32;;;;;;;65.68;48.22;;;;;;;28.26;100.00;98003.94;5013498;28;20073;-68
2022/03/20 05:18:20;;;;;;;76.70;50.83;;;;;;;28.40;100.00;97999.72;5015808;28;20112;-69
2022/03/20 05:21:10;;;;;;;74.53;49.72;;;;;;;28.49;100.00;97999.50;5015425;28;20042;-68
2022/03/20 05:24:05;;;;;;;74.57;47.05;;;;;;;28.53;100.00;97995.50;5017949;28;20148;-69
2022/03/20 05:26:40;;;;;;;71.80;49.40;;;;;;;28.48;100.00;97992.56;5031577;28;20041;-69
2022/03/20 05:29:35;;;;;;;80.32;49.30;;;;;;;28.55;100.00;97996.16;5015883;28;20054;-68
2022/03/20 05:32:10;;;;;;;72.07;48.97;;;;;;;28.64;100.00;97996.09;5014852;28;20219;-68
2022/03/20 05:35:08;;;;;;;71.70;49.63;;;;;;;28.66;100.00;97996.72;5014747;28;20658;-68
2022/03/20 05:37:46;;;;;;;69.80;47.38;;;;;;;28.67;100.00;97999.19;5014246;28;20064;-68
2022/03/20 05:40:35;;;;;;;68.15;46.92;;;;;;;28.65;100.00;97995.09;5014770;28;20069;-68
2022/03/20 05:43:17;;;;;;;67.53;45.10;;;;;;;28.67;100.00;97995.72;5023487;28;20075;-68
2022/03/20 05:46:12;;;;;;;67.55;46.63;;;;;;;28.89;100.00;97994.94;5023295;28;20092;-69
2022/03/20 05:48:47;;;;;;;62.47;45.97;;;;;;;29.12;100.00;98000.19;5033067;28;20046;-68
2022/03/20 05:51:37;;;;;;;59.47;42.90;;;;;;;29.26;100.00;97981.66;5026498;28;20033;-69
2022/03/20 05:54:20;;;;;;;68.28;45.80;;;;;;;29.41;100.00;97994.97;5023798;28;20054;-68
2022/03/20 06:00:16;;;;;;;69.95;51.00;;;;;;;29.58;100.00;97983.16;5018933;28;20121;-68
2022/03/20 06:03:11;;;;;;;88.85;59.83;;;;;;;29.65;100.00;97976.09;5018418;28;20057;-68
2022/03/20 06:05:47;;;;;;;175.43;102.20;;;;;;;29.42;100.00;97979.84;4998408;28;20069;-68
2022/03/20 06:08:42;;;;;;;193.20;120.22;;;;;;;29.54;100.00;97973.91;4998633;28;20616;-68
2022/03/20 06:11:17;;;;;;;208.02;125.43;;;;;;;29.37;100.00;97966.31;5014287;28;20046;-69
2022/03/20 06:14:06;;;;;;;184.07;111.32;;;;;;;29.44;100.00;97968.06;5012581;28;20087;-69
2022/03/20 06:16:48;;;;;;;155.82;100.55;;;;;;;29.53;100.00;97971.44;5016380;28;20048;-69
2022/03/20 06:19:38;;;;;;;173.57;106.22;;;;;;;29.57;100.00;97957.63;5020802;28;20080;-68
2022/03/20 06:22:27;;;;;;;194.90;118.07;;;;;;;29.23;100.00;97952.81;5028237;28;20068;-68
2022/03/20 06:25:09;;;;;;;185.63;117.80;;;;;;;29.39;100.00;97958.97;5032595;28;20057;-68
2022/03/20 06:28:01;;;;;;;181.65;112.35;;;;;;;29.27;100.00;97953.28;5005559;28;20057;-69
2022/03/20 06:30:44;;;;;;;163.63;98.80;;;;;;;29.29;100.00;97952.06;5023131;28;20128;-69
2022/03/20 06:33:35;;;;;;;145.50;89.20;;;;;;;29.52;100.00;97959.19;5029010;28;20439;-69
2022/03/20 06:36:24;;;;;;;115.57;72.47;;;;;;;29.23;100.00;97947.50;5037719;28;20103;-69
2022/03/20 06:39:13;;;;;;;106.97;70.50;;;;;;;29.28;100.00;97947.78;5025031;28;20218;-68
2022/03/20 06:41:55;;;;;;;93.47;60.55;;;;;;;29.27;100.00;97947.97;5024893;28;20049;-68
2022/03/20 06:44:45;;;;;;;99.38;58.17;;;;;;;29.37;100.00;97950.41;5024755;28;20053;-68
2022/03/20 06:47:35;;;;;;;92.00;60.03;;;;;;;29.22;100.00;97945.03;5014793;28;20120;-69
2022/03/20 06:50:20;;;;;;;94.60;58.90;;;;;;;29.43;98.27;97941.69;5021673;28;20156;-67
2022/03/20 06:53:15;;;;;;;87.22;53.33;;;;;;;29.59;97.43;97933.53;5020504;28;20045;-68
2022/03/20 06:55:51;;;;;;;78.43;49.20;;;;;;;29.67;92.67;97936.09;5017125;28;20136;-68
2022/03/20 06:58:40;;;;;;;74.13;46.08;;;;;;;29.78;91.78;97938.25;5026130;28;20065;-69
2022/03/20 07:01:30;;;;;;;61.80;40.85;;;;;;;29.76;88.86;97936.81;5018105;28;20054;-68
2022/03/20 07:04:18;;;;;;;56.35;39.80;;;;;;;29.73;90.53;97931.88;5021205;28;20549;-69
2022/03/20 07:07:01;;;;;;;56.85;37.88;;;;;;;29.51;92.74;97923.84;5019243;28;20127;-68
2022/03/20 07:09:57;;;;;;;57.95;38.92;;;;;;;29.50;94.88;97921.38;5026036;28;20087;-69
2022/03/20 07:12:32;;;;;;;58.15;41.65;;;;;;;29.63;100.00;97921.53;5028852;28;20049;-69
2022/03/20 07:15:21;;;;;;;62.50;42.63;;;;;;;29.50;98.28;97908.91;5027895;28;20049;-68
2022/03/20 07:18:04;;;;;;;59.60;39.80;;;;;;;29.72;91.99;97911.63;4680214;28;10000910;-68
2022/03/20 07:21:00;;;;;;;55.58;37.67;;;;;;;29.55;94.28;97903.88;5021858;28;20045;-68
2022/03/20 07:23:37;;;;;;;50.30;36.63;;;;;;;29.53;93.66;97908.53;5023805;28;20045;-67
2022/03/20 07:29:32;;;;;;;48.28;35.75;;;;;;;29.42;89.75;97897.56;5014716;28;20140;-68
2022/03/20 07:32:28;;;;;;;51.97;35.10;;;;;;;29.40;94.92;97892.44;5024550;28;20060;-68
2022/03/20 07:35:04;;;;;;;48.78;33.78;;;;;;;29.49;91.31;97901.97;5020383;28;20237;-66
2022/03/20 07:37:59;;;;;;;52.45;34.42;;;;;;;29.37;89.52;97894.66;5020037;28;20607;-68
2022/03/20 07:40:34;;;;;;;48.67;33.60;;;;;;;29.46;85.62;97890.88;5017704;28;20140;-66
2022/03/20 07:43:29;;;;;;;48.47;32.78;;;;;;;29.63;87.42;97881.69;5017711;28;20045;-68
2022/03/20 07:46:06;;;;;;;46.90;33.45;;;;;;;29.63;88.78;97873.72;5017339;28;20851;-67
2022/03/20 07:48:54;;;;;;;49.67;34.63;;;;;;;29.46;90.77;97872.28;5005649;28;20053;-68
2022/03/20 07:51:37;;;;;;;51.85;34.75;;;;;;;29.53;88.66;97871.38;5027207;28;20664;-68
2022/03/20 07:54:25;;;;;;;53.28;34.22;;;;;;;29.46;86.99;97874.94;5033662;28;20508;-68
2022/03/20 07:57:08;;;;;;;51.45;33.88;;;;;;;29.53;85.97;97870.56;5013597;28;20071;-71
2022/03/20 07:59:58;;;;;;;42.13;30.38;;;;;;;29.59;83.50;97867.16;5020027;28;20107;-68
2022/03/20 08:02:45;;;;;;;42.63;29.05;;;;;;;29.25;84.20;97863.22;5023029;28;20049;-66
2022/03/20 08:05:40;;;;;;;41.28;29.40;;;;;;;29.30;84.62;97858.19;5005256;28;20065;-69
2022/03/20 08:08:30;;;;;;;48.78;33.42;;;;;;;29.31;91.02;97848.41;4998327;28;20045;-68
2022/03/20 08:11:19;;;;;;;49.85;33.28;;;;;;;29.33;91.45;97845.56;5022566;28;20060;-67
2022/03/20 08:14:08;;;;;;;55.47;31.52;;;;;;;29.18;88.73;97838.44;5027125;28;20044;-68
2022/03/20 08:17:06;;;;;;;48.97;29.30;;;;;;;29.39;80.88;97852.81;5001040;28;20058;-68
2022/03/20 08:19:41;;;;;;;41.78;28.42;;;;;;;29.37;81.97;97844.22;5015580;28;20049;-68
2022/03/20 08:22:30;;;;;;;37.67;28.08;;;;;;;29.29;83.94;97842.47;4999071;28;20045;-68
2022/03/20 08:25:19;;;;;;;43.08;29.02;;;;;;;29.27;83.64;97840.00;5020992;28;20119;-69
2022/03/20 08:28:02;;;;;;;40.33;27.40;;;;;;;29.17;80.96;97843.94;5024674;28;20077;-68
2022/03/20 08:30:51;;;;;;;44.42;28.23;;;;;;;29.16;83.38;97827.19;5008208;28;20076;-70
2022/03/20 08:33:34;;;;;;;43.50;28.87;;;;;;;29.05;83.24;97830.31;5024791;28;20072;-70
2022/03/20 08:36:24;;;;;;;43.20;29.08;;;;;;;29.10;87.28;97822.63;5023146;28;20278;-71
2022/03/20 08:39:05;;;;;;;;;;;;;;;28.97;87.60;97811.84;5023795;28;20052;-69
2022/03/20 08:41:53;;;;;;;43.78;28.05;;;;;;;28.88;85.31;97807.63;5019254;28;19975;-69
2022/03/20 08:44:35;;;;;;;38.13;27.67;;;;;;;29.19;77.86;97816.22;5021512;28;20053;-69
2022/03/20 08:47:25;;;;;;;36.63;25.17;;;;;;;29.07;81.28;97807.06;5023161;28;20049;-73
2022/03/20 08:50:08;;;;;;;40.63;26.27;;;;;;;29.02;82.20;97793.53;5023964;28;20156;-70
2022/03/20 08:52:56;;;;;;;39.47;27.40;;;;;;;28.67;86.60;97800.34;5009253;28;20129;-69
2022/03/20 08:55:49;;;;;;;39.92;26.95;;;;;;;28.67;85.78;97795.03;5024338;28;20049;-68
2022/03/20 08:58:38;;;;;;;37.42;26.27;;;;;;;28.57;83.95;97791.88;5006368;28;20061;-68
2022/03/20 09:01:33;;;;;;;40.97;28.05;;;;;;;28.65;84.47;97790.94;5023346;28;20059;-68
2022/03/20 09:04:10;;;;;;;36.30;27.30;;;;;;;28.66;87.95;97787.28;5024084;28;20053;-68
2022/03/20 09:06:58;;;;;;;38.60;27.50;;;;;;;28.62;89.19;97786.00;5024002;28;20077;-69
2022/03/20 09:09:41;;;;;;;41.13;28.25;;;;;;;28.55;89.90;97781.44;5023151;28;20049;-66
2022/03/20 09:12:30;;;;;;;52.30;28.63;;;;;;;28.53;88.27;97780.78;5005821;28;20045;-69
2022/03/20 09:15:15;;;;;;;38.63;27.70;;;;;;;28.44;88.98;97781.88;5005164;28;20065;-68
2022/03/20 09:21:10;;;;;;;35.17;26.67;;;;;;;28.49;87.95;97778.69;5005522;28;20049;-68
2022/03/20 09:24:00;;;;;;;41.67;28.27;;;;;;;28.48;87.86;97769.91;5023590;28;20049;-68
2022/03/20 09:26:42;;;;;;;;;;;;;;;28.46;84.08;97769.25;5007275;28;20049;-68
2022/03/20 09:29:36;;;;;;;41.72;26.77;;;;;;;28.47;85.73;97773.56;5023861;28;20360;-69
2022/03/20 09:32:12;;;;;;;37.53;27.52;;;;;;;28.51;84.73;97769.53;5022859;28;20123;-68
2022/03/20 09:35:09;;;;;;;45.88;28.52;;;;;;;28.54;88.59;97763.06;4669594;28;10000373;-69
2022/03/20 09:37:45;;;;;;;43.08;29.50;;;;;;;28.60;87.48;97762.31;5007449;28;20045;-68
2022/03/20 09:40:43;;;;;;;42.67;29.42;;;;;;;28.60;87.88;97766.78;5022688;28;20119;-68
2022/03/20 09:43:18;;;;;;;39.55;26.38;;;;;;;28.55;86.70;97756.75;5017420;28;20535;-69
2022/03/20 09:46:07;;;;;;;39.75;27.90;;;;;;;28.51;86.15;97753.63;5023262;28;20055;-69
2022/03/20 09:48:51;;;;;;;43.10;28.73;;;;;;;28.51;86.18;97756.28;5023207;28;20152;-68
2022/03/20 09:51:48;;;;;;;46.28;29.40;;;;;;;28.49;88.98;97753.00;5005548;28;20033;-68
2022/03/20 09:54:23;;;;;;;42.65;30.65;;;;;;;28.55;91.20;97746.97;5005171;28;20473;-69
2022/03/20 09:57:12;;;;;;;48.60;30.73;;;;;;;28.53;90.77;97743.69;5004273;28;20060;-68
2022/03/20 10:00:11;;;;;;;46.03;30.65;;;;;;;28.49;90.75;97738.94;5014485;28;20135;-69
2022/03/20 10:03:13;;;;;;;;;;;;;;;28.66;86.00;97739.53;5006664;28;20073;-68
2022/03/20 10:06:18;;;;;;;44.80;30.70;;;;;;;28.65;89.22;97743.22;5004704;28;19925;-66
2022/03/20 10:09:16;;;;;;;52.85;31.02;;;;;;;28.60;89.31;97734.97;4993215;28;20108;-69
2022/03/20 10:11:54;;;;;;;45.65;30.70;;;;;;;28.58;89.73;97732.50;5000859;28;20147;-67
2022/03/20 10:14:52;;;;;;;45.08;29.75;;;;;;;28.64;89.47;97734.47;5005176;28;20057;-67
2022/03/20 10:18:15;;;;;;;48.40;32.38;;;;;;;28.57;89.46;97730.06;5005628;28;20054;-67
2022/03/20 10:21:08;;;;;;;40.08;30.23;;;;;;;28.58;89.04;97726.38;4993958;28;20061;-68
2022/03/20 10:23:50;;;;;;;41.65;30.63;;;;;;;28.51;92.83;97721.81;5004792;28;20053;-67
2022/03/20 10:26:37;;;;;;;44.88;30.95;;;;;;;28.45;91.42;97725.22;5002137;28;20398;-67
2022/03/20 10:29:21;;;;;;;44.10;30.90;;;;;;;28.37;90.89;97714.69;4995944;28;20054;-68
2022/03/20 10:32:09;;;;;;;42.63;29.48;;;;;;;28.36;91.59;97707.75;5004392;28;20042;-67
2022/03/20 10:35:07;;;;;;;41.40;31.13;;;;;;;28.49;87.46;97717.72;5004013;28;20050;-68
2022/03/20 10:37:52;;;;;;;41.70;30.95;;;;;;;28.38;90.51;97710.22;4985273;28;20537;-68
2022/03/20 10:40:40;;;;;;;42.55;29.35;;;;;;;28.33;89.44;97712.59;5000489;28;20053;-67
2022/03/20 10:43:22;;;;;;;43.73;30.17;;;;;;;28.27;89.17;97703.53;4979373;28;20904;-68
2022/03/20 10:46:12;;;;;;;46.50;29.88;;;;;;;28.18;91.29;97702.78;4997699;28;20072;-68
2022/03/20 10:48:56;;;;;;;42.47;29.58;;;;;;;28.16;89.34;97698.69;4999292;28;20105;-68
2022/03/20 10:51:47;;;;;;;42.72;29.83;;;;;;;28.13;91.48;97694.53;5001457;28;20139;-69
2022/03/20 10:54:51;;;;;;;39.95;28.80;;;;;;;28.09;92.13;97700.41;5001368;28;20054;-68
2022/03/20 10:57:41;;;;;;;42.85;29.95;;;;;;;28.01;90.00;97697.81;5002438;28;20056;-68
2022/03/20 11:00:24;;;;;;;41.10;29.55;;;;;;;27.93;90.55;97690.78;4998883;28;20092;-68
2022/03/20 11:03:13;;;;;;;44.97;27.75;;;;;;;28.00;86.05;97701.47;4990711;28;20182;-67
2022/03/20 11:05:57;;;;;;;42.83;28.20;;;;;;;28.08;87.97;97698.75;4999262;28;20054;-68
2022/03/20 11:08:52;;;;;;;47.42;30.20;;;;;;;28.07;89.69;97697.09;5023414;28;20342;-67
2022/03/20 11:11:50;;;;;;;50.85;33.75;;;;;;;28.08;93.35;97698.75;5019891;28;20065;-68
2022/03/20 11:14:42;;;;;;;50.35;33.85;;;;;;;28.03;93.78;97695.78;5021057;28;20091;-68
2022/03/20 11:17:27;;;;;;;46.33;31.60;;;;;;;28.02;93.77;97697.63;5028476;28;20046;-67
2022/03/20 11:20:22;;;;;;;41.58;32.05;;;;;;;28.02;94.32;97694.97;5029851;28;20697;-68
2022/03/20 11:23:05;;;;;;;47.17;33.45;;;;;;;28.07;97.12;97689.97;5025705;28;20143;-69
2022/03/20 11:25:55;;;;;;;51.97;33.00;;;;;;;28.01;100.00;97696.00;5039676;28;20053;-67
2022/03/20 11:28:53;;;;;;;44.83;32.28;;;;;;;27.96;100.00;97687.75;5044450;28;20045;-68
2022/03/20 11:31:34;;;;;;;45.20;33.35;;;;;;;27.94;100.00;97686.28;5024778;28;20056;-68
2022/03/20 11:34:24;;;;;;;44.45;33.70;;;;;;;27.94;100.00;97692.41;5022110;28;20053;-68
2022/03/20 11:37:19;;;;;;;46.25;32.63;;;;;;;28.07;97.11;97683.84;5018259;28;20053;-67
2022/03/20 11:40:10;;;;;;;49.45;34.42;;;;;;;27.90;99.41;97679.72;5038279;28;20183;-68
2022/03/20 11:43:23;;;;;;;48.17;33.60;;;;;;;27.83;100.00;97676.13;5006836;28;20152;-68
2022/03/20 11:46:18;;;;;;;49.15;34.45;;;;;;;27.77;100.00;97675.88;5007948;28;20057;-67
2022/03/20 11:49:22;;;;;;;47.05;34.22;;;;;;;27.73;100.00;97677.22;5007859;28;20536;-68
2022/03/20 11:52:13;;;;;;;44.85;34.45;;;;;;;27.68;100.00;97674.28;5007842;28;20049;-67
2022/03/20 11:54:57;;;;;;;48.17;34.55;;;;;;;27.64;100.00;97667.69;5008333;28;20050;-67
2022/03/20 11:57:47;;;;;;;60.42;38.45;;;;;;;27.62;100.00;97676.78;5018930;28;20045;-69
2022/03/20 12:00:39;;;;;;;53.17;36.35;;;;;;;27.58;100.00;97671.06;5026739;28;20091;-69
2022/03/20 12:03:32;;;;;;;50.45;34.08;;;;;;;27.57;100.00;97669.41;5026000;28;20073;-68
2022/03/20 12:06:33;;;;;;;46.88;34.83;;;;;;;27.54;100.00;97669.75;5018687;28;20138;-68
2022/03/20 12:09:22;;;;;;;;;;;;;;;27.52;100.00;97666.44;5013900;28;20049;-70
2022/03/20 12:12:13;;;;;;;46.85;34.63;;;;;;;27.46;100.00;97669.78;5044463;28;19932;-68
2022/03/20 12:14:56;;;;;;;52.05;36.53;;;;;;;27.41;100.00;97664.19;5046926;28;20346;-68
2022/03/20 12:18:11;;;;;;;51.70;35.85;;;;;;;27.41;100.00;97670.31;5027702;28;20716;-68
2022/03/20 12:21:00;;;;;;;47.63;35.80;;;;;;;27.38;100.00;97667.19;5027745;28;20477;-69
2022/03/20 12:23:50;;;;;;;50.05;35.05;;;;;;;27.37;100.00;97668.22;5027415;28;20049;-68
2022/03/20 12:26:44;;;;;;;51.88;36.55;;;;;;;27.38;100.00;97662.72;5025598;28;20061;-68
2022/03/20 12:29:38;;;;;;;49.05;36.22;;;;;;;27.36;100.00;97659.47;5021099;28;20049;-68
2022/03/20 12:32:52;;;;;;;53.75;37.08;;;;;;;27.37;100.00;97668.22;5024447;28;20054;-68
2022/03/20 12:35:36;;;;;;;60.10;35.70;;;;;;;27.35;100.00;97676.31;5029804;28;20063;-68
2022/03/20 12:38:47;;;;;;;50.22;35.10;;;;;;;27.33;100.00;97683.59;5025741;28;20056;-68
2022/03/20 12:41:24;;;;;;;45.42;32.78;;;;;;;27.31;100.00;97674.19;5026935;28;20049;-68
2022/03/20 12:44:14;;;;;;;45.05;32.53;;;;;;;27.28;100.00;97674.56;5026890;28;20053;-68
2022/03/20 12:46:57;;;;;;;41.58;30.83;;;;;;;27.26;100.00;97679.19;5027524;28;20122;-68
2022/03/20 12:50:03;;;;;;;44.30;31.63;;;;;;;27.27;100.00;97683.50;5026500;28;20364;-68
2022/03/20 12:52:39;;;;;;;43.35;30.98;;;;;;;27.24;100.00;97686.47;5026431;28;20054;-68
2022/03/20 12:55:27;;;;;;;44.67;31.70;;;;;;;27.17;100.00;97686.34;5035423;28;20408;-67
2022/03/20 12:58:19;;;;;;;41.70;30.60;;;;;;;27.11;100.00;97687.06;5027132;28;20112;-67
2022/03/20 13:01:07;;;;;;;38.88;30.10;;;;;;;27.03;100.00;97692.41;5027620;28;20065;-68
2022/03/20 13:03:56;;;;;;;45.72;27.63;;;;;;;26.91;100.00;97694.59;5019962;28;20392;-68
2022/03/20 13:06:47;;;;;;;43.92;29.13;;;;;;;26.84;100.00;97693.59;5033811;28;20783;-68
2022/03/20 13:09:29;;;;;;;40.45;28.15;;;;;;;26.79;100.00;97703.06;5024127;28;20136;-69
2022/03/20 13:12:25;;;;;;;47.58;26.42;;;;;;;26.72;100.00;97699.47;5027237;28;20081;-70
2022/03/20 13:15:01;;;;;;;42.00;27.45;;;;;;;26.65;100.00;97705.44;4990385;28;20513;-71
2022/03/20 13:17:56;;;;;;;40.90;28.17;;;;;;;26.58;100.00;97708.94;5024456;28;20475;-70